createdAt,value
2023-03-15T00:02:07.541Z,2.20
2023-03-15T00:04:35.281Z,2.63
2023-03-15T00:07:03.130Z,2.20
2023-03-15T00:09:31.966Z,2.87
2023-03-15T00:11:59.536Z,1.57
2023-03-15T00:14:27.277Z,2.33
2023-03-15T00:16:55.269Z,1.50
2023-03-15T00:19:22.906Z,1.80
2023-03-15T00:21:50.456Z,2.03
2023-03-15T00:24:17.952Z,2.33
2023-03-15T00:26:46.986Z,2.40
2023-03-15T00:29:14.652Z,2.30
2023-03-15T00:31:42.178Z,1.90
2023-03-15T00:34:09.743Z,1.90
2023-03-15T00:36:37.666Z,2.40
2023-03-15T00:39:05.574Z,1.53
2023-03-15T00:41:33.211Z,1.60
2023-03-15T00:44:03.799Z,1.80
2023-03-15T00:46:31.613Z,1.60
2023-03-15T00:49:00.259Z,1.63
2023-03-15T00:51:27.851Z,1.67
2023-03-15T00:53:55.405Z,2.03
2023-03-15T00:56:24.697Z,1.40
2023-03-15T00:58:53.218Z,2.00
2023-03-15T01:01:24.229Z,1.30
2023-03-15T01:03:51.910Z,1.10
2023-03-15T01:06:21.897Z,2.23
2023-03-15T01:08:49.798Z,1.63
2023-03-15T01:11:19.989Z,1.70
2023-03-15T01:13:48.305Z,1.90
2023-03-15T01:16:16.465Z,1.73
2023-03-15T01:18:45.404Z,1.50
2023-03-15T01:21:15.451Z,1.77
2023-03-15T01:23:43.018Z,1.80
2023-03-15T01:26:19.101Z,1.90
2023-03-15T01:28:47.065Z,1.50
2023-03-15T01:31:18.861Z,1.60
2023-03-15T01:33:48.064Z,1.70
2023-03-15T01:36:16.104Z,1.93
2023-03-15T01:38:43.834Z,1.73
2023-03-15T01:41:12.558Z,1.87
2023-03-15T01:43:46.943Z,1.57
2023-03-15T01:46:26.711Z,1.60
2023-03-15T01:49:01.615Z,1.70
2023-03-15T01:51:35.438Z,1.80
2023-03-15T01:54:07.700Z,1.80
2023-03-15T01:56:38.398Z,1.30
2023-03-15T01:59:08.317Z,2.10
2023-03-15T02:01:38.006Z,2.07
2023-03-15T02:04:10.718Z,1.70
2023-03-15T02:06:38.776Z,2.07
2023-03-15T02:09:09.790Z,1.83
2023-03-15T02:11:37.939Z,1.30
2023-03-15T02:14:06.534Z,1.70
2023-03-15T02:16:34.989Z,1.70
2023-03-15T02:19:02.639Z,1.97
2023-03-15T02:21:43.263Z,1.30
2023-03-15T02:24:22.277Z,1.73
2023-03-15T02:26:52.714Z,1.50
2023-03-15T02:29:24.272Z,2.80
2023-03-15T02:31:53.812Z,1.50
2023-03-15T02:34:25.232Z,1.73
2023-03-15T02:36:54.679Z,1.17
2023-03-15T02:39:23.616Z,1.77
2023-03-15T02:41:54.618Z,2.47
2023-03-15T02:44:29.310Z,1.37
2023-03-15T02:47:01.244Z,1.53
2023-03-15T02:49:32.528Z,1.60
2023-03-15T02:52:00.065Z,1.33
2023-03-15T02:54:27.666Z,1.63
2023-03-15T02:56:55.309Z,1.40
2023-03-15T02:59:24.207Z,1.33
2023-03-15T03:01:51.873Z,1.80
2023-03-15T03:04:19.721Z,2.10
2023-03-15T03:06:47.348Z,1.73
2023-03-15T03:09:15.214Z,1.57
2023-03-15T03:11:42.724Z,1.93
2023-03-15T03:14:10.257Z,1.73
2023-03-15T03:16:39.216Z,1.10
2023-03-15T03:19:06.840Z,1.43
2023-03-15T03:21:34.386Z,1.97
2023-03-15T03:24:01.924Z,1.43
2023-03-15T03:26:32.746Z,1.27
2023-03-15T03:29:00.432Z,0.90
2023-03-15T03:31:29.010Z,1.33
2023-03-15T03:33:57.965Z,1.27
2023-03-15T03:36:25.834Z,1.70
2023-03-15T03:38:54.679Z,1.40
2023-03-15T03:41:22.303Z,1.47
2023-03-15T03:43:50.667Z,2.03
2023-03-15T03:46:18.222Z,2.30
2023-03-15T03:48:45.935Z,1.37
2023-03-15T03:51:14.863Z,1.77
2023-03-15T03:53:42.505Z,1.70
2023-03-15T03:56:10.477Z,2.00
2023-03-15T03:58:38.178Z,1.77
2023-03-15T04:01:06.193Z,1.87
2023-03-15T04:03:34.211Z,1.43
2023-03-15T04:06:05.629Z,1.93
2023-03-15T04:08:34.794Z,1.97
2023-03-15T04:11:03.999Z,1.90
2023-03-15T04:13:32.441Z,1.57
2023-03-15T04:16:02.327Z,1.67
2023-03-15T04:18:30.202Z,1.57
2023-03-15T04:20:57.737Z,1.70
2023-03-15T04:23:25.878Z,2.03
2023-03-15T04:25:55.553Z,2.00
2023-03-15T04:28:23.732Z,1.20
2023-03-15T04:30:52.111Z,1.30
2023-03-15T04:33:19.655Z,1.60
2023-03-15T04:35:47.307Z,1.30
2023-03-15T04:38:15.210Z,1.60
2023-03-15T04:40:42.759Z,1.47
2023-03-15T04:43:11.732Z,1.23
2023-03-15T04:45:39.244Z,1.33
2023-03-15T04:48:07.092Z,1.70
2023-03-15T04:50:34.654Z,1.60
2023-03-15T04:53:02.294Z,1.33
2023-03-15T04:55:29.885Z,1.30
2023-03-15T04:57:58.312Z,1.57
2023-03-15T05:00:27.301Z,1.10
2023-03-15T05:02:55.592Z,1.40
2023-03-15T05:05:24.712Z,2.17
2023-03-15T05:07:52.410Z,1.57
2023-03-15T05:10:20.170Z,1.33
2023-03-15T05:12:47.834Z,1.20
2023-03-15T05:15:17.157Z,1.63
2023-03-15T05:17:46.813Z,1.33
2023-03-15T05:20:15.579Z,1.57
2023-03-15T05:22:44.009Z,1.50
2023-03-15T05:25:11.792Z,1.50
2023-03-15T05:27:39.706Z,1.97
2023-03-15T05:30:10.263Z,1.90
2023-03-15T05:32:39.539Z,1.30
2023-03-15T05:35:09.890Z,3.60
2023-03-15T05:37:37.611Z,4.87
2023-03-15T05:40:08.153Z,2.00
2023-03-15T05:42:36.301Z,5.70
2023-03-15T05:45:04.050Z,3.93
2023-03-15T05:47:33.245Z,3.10
2023-03-15T05:50:01.726Z,3.17
2023-03-15T05:52:30.836Z,2.20
2023-03-15T05:55:00.660Z,1.77
2023-03-15T05:57:28.504Z,1.80
2023-03-15T05:59:57.692Z,1.77
2023-03-15T06:02:25.444Z,1.37
2023-03-15T06:04:53.074Z,1.47
2023-03-15T06:07:21.181Z,1.50
2023-03-15T06:09:50.184Z,2.03
2023-03-15T06:12:17.755Z,2.03
2023-03-15T06:14:45.428Z,1.87
2023-03-15T06:17:13.148Z,2.17
2023-03-15T06:19:40.752Z,2.37
2023-03-15T06:22:08.908Z,3.00
2023-03-15T06:24:37.057Z,2.30
2023-03-15T06:27:06.249Z,1.93
2023-03-15T06:29:34.550Z,1.97
2023-03-15T06:32:03.193Z,1.73
2023-03-15T06:34:30.780Z,2.50
2023-03-15T06:36:58.412Z,2.37
2023-03-15T06:39:26.126Z,2.40
2023-03-15T06:41:57.266Z,1.97
2023-03-15T06:44:26.405Z,2.03
2023-03-15T06:46:54.117Z,2.30
2023-03-15T06:49:21.764Z,4.10
2023-03-15T06:51:49.416Z,2.97
2023-03-15T06:54:18.440Z,2.07
2023-03-15T06:56:46.091Z,2.20
2023-03-15T06:59:13.793Z,2.50
2023-03-15T07:01:42.821Z,2.40
2023-03-15T07:04:10.906Z,2.50
2023-03-15T07:06:38.516Z,2.77
2023-03-15T07:09:06.640Z,2.50
2023-03-15T07:11:34.599Z,2.60
2023-03-15T07:14:02.355Z,3.00
2023-03-15T07:16:30.524Z,3.20
2023-03-15T07:19:00.028Z,3.00
2023-03-15T07:21:27.727Z,2.57
2023-03-15T07:23:57.603Z,2.70
2023-03-15T07:26:25.311Z,2.67
2023-03-15T07:28:53.053Z,2.50
2023-03-15T07:31:22.226Z,2.50
2023-03-15T07:33:49.885Z,2.73
2023-03-15T07:36:19.238Z,2.60
2023-03-15T07:38:48.299Z,2.67
2023-03-15T07:41:15.873Z,3.13
2023-03-15T07:43:43.805Z,2.57
2023-03-15T07:46:11.541Z,3.30
2023-03-15T07:48:48.607Z,3.00
2023-03-15T07:51:17.175Z,3.30
2023-03-15T07:53:48.204Z,3.90
2023-03-15T07:56:16.000Z,3.33
2023-03-15T07:58:43.615Z,3.57
2023-03-15T08:01:11.246Z,3.20
2023-03-15T08:03:38.786Z,3.40
2023-03-15T08:06:06.819Z,2.97
2023-03-15T08:08:34.518Z,3.30
2023-03-15T08:11:03.435Z,3.47
2023-03-15T08:13:31.124Z,3.40
2023-03-15T08:15:58.706Z,3.83
2023-03-15T08:18:28.819Z,3.50
2023-03-15T08:20:56.864Z,3.40
2023-03-15T08:23:25.587Z,3.47
2023-03-15T08:25:53.252Z,3.70
2023-03-15T08:28:24.253Z,2.87
2023-03-15T08:30:51.957Z,2.40
2023-03-15T08:33:20.040Z,3.20
2023-03-15T08:35:52.454Z,2.97
2023-03-15T08:38:20.033Z,3.43
2023-03-15T08:40:48.455Z,3.70
2023-03-15T08:43:16.166Z,3.63
2023-03-15T08:46:00.113Z,3.20
2023-03-15T08:48:29.284Z,3.10
2023-03-15T08:50:58.247Z,3.50
2023-03-15T08:53:25.972Z,3.07
2023-03-15T08:55:53.619Z,3.00
2023-03-15T08:58:21.238Z,3.40
2023-03-15T09:00:58.748Z,3.40
2023-03-15T09:03:26.400Z,3.13
2023-03-15T09:05:57.298Z,3.37
2023-03-15T09:08:25.161Z,2.60
2023-03-15T09:10:55.230Z,3.07
2023-03-15T09:13:23.534Z,2.60
2023-03-15T09:15:53.235Z,2.40
2023-03-15T09:18:21.352Z,2.63
2023-03-15T09:20:48.970Z,2.60
2023-03-15T09:23:16.854Z,2.80
2023-03-15T09:25:44.545Z,2.17
2023-03-15T09:28:12.818Z,1.77
2023-03-15T09:30:42.227Z,2.90
2023-03-15T09:33:14.580Z,2.07
2023-03-15T09:35:42.485Z,2.13
2023-03-15T09:38:10.508Z,2.00
2023-03-15T09:40:41.848Z,1.97
2023-03-15T09:43:44.544Z,2.43
2023-03-15T09:46:27.618Z,2.10
2023-03-15T09:49:05.161Z,1.57
2023-03-15T09:51:41.450Z,2.00
2023-03-15T09:54:13.724Z,1.80
2023-03-15T09:56:46.880Z,1.70
2023-03-15T09:59:17.491Z,2.10
2023-03-15T10:01:45.337Z,1.80
2023-03-15T10:04:26.202Z,2.00
2023-03-15T10:06:56.238Z,1.73
2023-03-15T10:09:26.700Z,2.40
2023-03-15T10:12:03.678Z,2.17
2023-03-15T10:14:48.899Z,2.07
2023-03-15T10:17:22.201Z,3.40
2023-03-15T10:19:53.103Z,1.80
2023-03-15T10:22:28.890Z,1.90
2023-03-15T10:25:01.394Z,1.50
2023-03-15T10:27:35.719Z,1.90
2023-03-15T10:30:14.033Z,1.53
2023-03-15T10:32:43.489Z,1.60
2023-03-15T10:35:16.428Z,1.33
2023-03-15T10:37:44.561Z,1.40
2023-03-15T10:40:15.909Z,2.03
2023-03-15T10:42:45.550Z,1.13
2023-03-15T10:45:24.595Z,1.60
2023-03-15T10:48:00.032Z,1.40
2023-03-15T10:50:33.317Z,1.50
2023-03-15T10:53:04.061Z,1.73
2023-03-15T10:55:34.777Z,2.03
2023-03-15T10:58:20.031Z,1.50
2023-03-15T11:00:52.527Z,1.83
2023-03-15T11:03:22.213Z,1.73
2023-03-15T11:05:53.262Z,2.30
2023-03-15T11:08:22.609Z,1.57
2023-03-15T11:10:57.907Z,1.53
2023-03-15T11:13:30.974Z,1.70
2023-03-15T11:16:14.495Z,1.70
2023-03-15T11:18:47.606Z,1.47
2023-03-15T11:21:20.486Z,1.80
2023-03-15T11:23:53.411Z,1.30
2023-03-15T11:26:33.794Z,1.30
2023-03-15T11:29:05.289Z,1.60
2023-03-15T11:31:33.183Z,1.30
2023-03-15T11:34:05.765Z,2.20
2023-03-15T11:36:39.494Z,1.10
2023-03-15T11:39:08.000Z,1.20
2023-03-15T11:41:42.662Z,1.00
2023-03-15T11:44:28.449Z,1.40
2023-03-15T11:47:00.012Z,1.00
2023-03-15T11:49:36.338Z,1.10
2023-03-15T11:52:06.416Z,1.37
2023-03-15T11:54:34.253Z,1.30
2023-03-15T11:57:03.896Z,1.20
2023-03-15T11:59:33.636Z,1.00
2023-03-15T12:02:27.796Z,1.23
2023-03-15T12:04:57.255Z,1.47
2023-03-15T12:07:38.861Z,1.40
2023-03-15T12:10:33.946Z,1.40
2023-03-15T12:13:08.979Z,1.30
2023-03-15T12:15:48.788Z,1.10
2023-03-15T12:18:23.178Z,1.20
2023-03-15T12:20:58.399Z,1.40
2023-03-15T12:23:44.604Z,1.50
2023-03-15T12:26:24.775Z,1.30
2023-03-15T12:29:02.495Z,1.33
2023-03-15T12:31:45.057Z,1.40
2023-03-15T12:34:16.134Z,1.50
2023-03-15T12:36:48.524Z,1.40
2023-03-15T12:39:38.808Z,1.03
2023-03-15T12:42:06.626Z,1.33
2023-03-15T12:44:42.384Z,1.60
2023-03-15T12:47:11.318Z,1.40
2023-03-15T12:49:42.724Z,1.47
2023-03-15T12:52:43.575Z,1.40
2023-03-15T12:55:16.851Z,1.73
2023-03-15T12:57:49.968Z,1.40
2023-03-15T13:00:20.495Z,1.10
2023-03-15T13:02:50.775Z,1.30
2023-03-15T13:05:23.593Z,1.40
2023-03-15T13:07:59.811Z,1.87
2023-03-15T13:10:59.351Z,1.50
2023-03-15T13:13:44.905Z,1.53
2023-03-15T13:16:28.265Z,1.00
2023-03-15T13:19:05.253Z,1.10
2023-03-15T13:21:35.793Z,1.23
2023-03-15T13:24:06.974Z,1.20
2023-03-15T13:26:45.327Z,1.60
2023-03-15T13:29:19.398Z,1.40
2023-03-15T13:31:47.859Z,1.37
2023-03-15T13:34:20.701Z,1.30
2023-03-15T13:36:50.165Z,1.20
2023-03-15T13:39:23.156Z,1.40
2023-03-15T13:41:58.619Z,1.40
2023-03-15T13:44:26.705Z,1.10
2023-03-15T13:46:56.383Z,1.40
2023-03-15T13:49:25.246Z,1.17
2023-03-15T13:51:54.209Z,1.50
2023-03-15T13:54:26.117Z,1.33
2023-03-15T13:56:59.472Z,1.20
2023-03-15T13:59:32.571Z,1.60
2023-03-15T14:02:02.585Z,1.30
2023-03-15T14:04:32.725Z,1.03
2023-03-15T14:07:13.970Z,1.10
2023-03-15T14:09:41.652Z,1.20
2023-03-15T14:12:22.729Z,1.30
2023-03-15T14:14:52.545Z,1.67
2023-03-15T14:17:25.713Z,1.20
2023-03-15T14:19:55.361Z,1.60
2023-03-15T14:22:23.725Z,1.27
2023-03-15T14:24:52.687Z,1.43
2023-03-15T14:27:23.477Z,1.30
2023-03-15T14:29:53.858Z,1.40
2023-03-15T14:32:28.226Z,1.50
2023-03-15T14:35:05.351Z,1.40
2023-03-15T14:37:38.041Z,1.70
2023-03-15T14:40:15.330Z,1.17
2023-03-15T14:42:44.965Z,1.40
2023-03-15T14:45:13.329Z,1.63
2023-03-15T14:47:55.412Z,1.60
2023-03-15T14:50:25.169Z,1.17
2023-03-15T14:52:54.369Z,1.27
2023-03-15T14:55:24.985Z,1.47
2023-03-15T14:57:56.337Z,1.57
2023-03-15T15:00:24.822Z,1.50
2023-03-15T15:02:55.211Z,1.40
2023-03-15T15:05:25.004Z,1.53
2023-03-15T15:07:54.767Z,1.30
2023-03-15T15:10:23.406Z,1.00
2023-03-15T15:13:05.269Z,1.40
2023-03-15T15:15:53.572Z,1.20
2023-03-15T15:18:23.293Z,1.33
2023-03-15T15:20:54.099Z,1.27
2023-03-15T15:23:25.703Z,1.40
2023-03-15T15:25:56.736Z,1.10
2023-03-15T15:28:34.799Z,1.40
2023-03-15T15:31:06.604Z,1.30
2023-03-15T15:33:34.334Z,1.13
2023-03-15T15:36:02.252Z,1.40
2023-03-15T15:38:38.042Z,1.20
2023-03-15T15:41:06.191Z,1.60
2023-03-15T15:43:33.961Z,1.10
2023-03-15T15:46:01.795Z,1.27
2023-03-15T15:48:30.954Z,1.30
2023-03-15T15:50:58.801Z,1.90
2023-03-15T15:53:33.777Z,1.50
2023-03-15T15:56:01.545Z,1.20
2023-03-15T15:58:29.137Z,1.60
2023-03-15T16:00:56.696Z,1.50
2023-03-15T16:03:24.569Z,1.80
2023-03-15T16:05:53.616Z,1.60
2023-03-15T16:08:23.998Z,1.33
2023-03-15T16:10:51.816Z,1.43
2023-03-15T16:13:19.451Z,1.13
2023-03-15T16:15:47.282Z,1.70
2023-03-15T16:18:15.203Z,1.80
2023-03-15T16:20:43.042Z,1.50
2023-03-15T16:23:20.340Z,1.33
2023-03-15T16:25:49.970Z,1.47
2023-03-15T16:28:17.827Z,1.60
2023-03-15T16:30:46.977Z,1.47
2023-03-15T16:33:16.212Z,1.20
2023-03-15T16:35:44.714Z,1.63
2023-03-15T16:38:17.009Z,1.57
2023-03-15T16:40:46.509Z,1.43
2023-03-15T16:43:14.804Z,1.10
2023-03-15T16:48:24.721Z,1.27
2023-03-15T16:50:52.402Z,1.20
2023-03-15T16:53:21.315Z,1.13
2023-03-15T16:55:48.842Z,1.60
2023-03-15T16:58:20.480Z,1.33
2023-03-15T17:00:48.467Z,1.40
2023-03-15T17:03:17.505Z,1.17
2023-03-15T17:05:48.761Z,1.40
2023-03-15T17:08:19.685Z,1.27
2023-03-15T17:10:54.179Z,1.27
2023-03-15T17:13:27.610Z,1.57
2023-03-15T17:15:55.237Z,1.30
2023-03-15T17:18:29.383Z,1.40
2023-03-15T17:20:58.500Z,1.53
2023-03-15T17:23:28.630Z,1.70
2023-03-15T17:25:57.815Z,1.30
2023-03-15T17:28:25.413Z,1.80
2023-03-15T17:30:59.720Z,1.43
2023-03-15T17:33:36.581Z,1.90
2023-03-15T17:36:06.982Z,1.27
2023-03-15T17:38:34.571Z,1.60
2023-03-15T17:41:04.122Z,1.43
2023-03-15T17:43:39.403Z,1.70
2023-03-15T17:46:07.009Z,1.33
2023-03-15T17:48:34.605Z,1.90
2023-03-15T17:51:02.223Z,1.50
2023-03-15T17:53:30.019Z,1.60
2023-03-15T17:55:57.976Z,1.77
2023-03-15T17:58:28.454Z,1.50
2023-03-15T18:00:56.777Z,1.60
2023-03-15T18:03:24.923Z,1.57
2023-03-15T18:05:52.644Z,1.90
2023-03-15T18:08:24.432Z,1.53
2023-03-15T18:10:52.889Z,1.80
2023-03-15T18:13:23.231Z,1.73
2023-03-15T18:15:52.753Z,10.47
2023-03-15T18:18:21.191Z,14.60
2023-03-15T18:20:51.710Z,6.83
2023-03-15T18:23:19.609Z,4.50
2023-03-15T18:25:48.153Z,2.00
2023-03-15T18:28:18.009Z,2.23
2023-03-15T18:30:45.659Z,1.60
2023-03-15T18:33:15.861Z,1.90
2023-03-15T18:35:43.526Z,2.03
2023-03-15T18:38:11.794Z,2.20
2023-03-15T18:40:39.361Z,2.17
2023-03-15T18:43:07.105Z,2.27
2023-03-15T18:45:44.321Z,2.53
2023-03-15T18:48:18.298Z,2.23
2023-03-15T18:50:46.015Z,2.40
2023-03-15T18:53:13.749Z,2.17
2023-03-15T18:55:41.343Z,2.30
2023-03-15T18:58:12.828Z,2.40
2023-03-15T19:00:41.473Z,2.60
2023-03-15T19:03:09.745Z,2.10
2023-03-15T19:05:39.266Z,2.97
2023-03-15T19:08:07.301Z,5.07
2023-03-15T19:10:35.315Z,4.90
2023-03-15T19:13:04.563Z,3.83
2023-03-15T19:15:32.844Z,4.17
2023-03-15T19:18:01.954Z,3.50
2023-03-15T19:20:29.759Z,2.93
2023-03-15T19:23:01.220Z,3.10
2023-03-15T19:25:28.863Z,3.17
2023-03-15T19:27:57.323Z,2.90
2023-03-15T19:30:26.280Z,3.20
2023-03-15T19:32:54.567Z,3.30
2023-03-15T19:35:22.818Z,3.00
2023-03-15T19:37:50.761Z,3.50
2023-03-15T19:40:20.737Z,5.47
2023-03-15T19:42:49.453Z,3.20
2023-03-15T19:45:17.666Z,4.20
2023-03-15T19:47:45.808Z,3.90
2023-03-15T19:50:14.939Z,3.87
2023-03-15T19:52:46.670Z,3.67
2023-03-15T19:55:16.227Z,3.87
2023-03-15T19:57:45.546Z,4.13
2023-03-15T20:00:16.237Z,4.10
2023-03-15T20:02:44.071Z,4.40
2023-03-15T20:05:13.555Z,3.83
2023-03-15T20:07:42.474Z,4.17
2023-03-15T20:10:11.857Z,3.97
2023-03-15T20:12:42.216Z,4.33
2023-03-15T20:15:14.501Z,4.27
2023-03-15T20:17:42.452Z,4.77
2023-03-15T20:20:13.159Z,4.60
2023-03-15T20:22:42.638Z,3.90
2023-03-15T20:25:11.937Z,4.40
2023-03-15T20:27:40.125Z,4.43
2023-03-15T20:30:13.235Z,5.03
2023-03-15T20:32:41.428Z,4.57
2023-03-15T20:35:10.820Z,4.90
2023-03-15T20:37:42.528Z,4.80
2023-03-15T20:40:12.475Z,4.83
2023-03-15T20:42:40.122Z,4.67
2023-03-15T20:45:09.518Z,4.30
2023-03-15T20:47:41.181Z,4.93
2023-03-15T20:50:11.174Z,4.17
2023-03-15T20:52:39.030Z,5.37
2023-03-15T20:55:08.002Z,4.93
2023-03-15T20:57:37.152Z,5.10
2023-03-15T21:00:12.168Z,4.73
2023-03-15T21:02:41.164Z,5.23
2023-03-15T21:05:10.272Z,4.63
2023-03-15T21:07:37.848Z,4.70
2023-03-15T21:10:07.507Z,4.60
2023-03-15T21:12:35.088Z,4.97
2023-03-15T21:15:02.827Z,4.70
2023-03-15T21:17:30.719Z,5.37
2023-03-15T21:20:00.620Z,4.77
2023-03-15T21:22:28.219Z,4.63
2023-03-15T21:24:56.498Z,5.17
2023-03-15T21:27:26.105Z,4.83
2023-03-15T21:29:54.941Z,5.60
2023-03-15T21:32:22.782Z,5.50
2023-03-15T21:34:50.446Z,5.67
2023-03-15T21:37:19.420Z,4.50
2023-03-15T21:39:47.077Z,4.20
2023-03-15T21:42:14.602Z,4.90
2023-03-15T21:44:42.266Z,4.90
2023-03-15T21:47:10.299Z,5.50
2023-03-15T21:49:37.948Z,4.77
2023-03-15T21:52:05.491Z,5.50
2023-03-15T21:54:34.447Z,6.00
2023-03-15T21:57:02.031Z,6.73
2023-03-15T21:59:29.589Z,7.40
2023-03-15T22:01:58.125Z,7.63
2023-03-15T22:04:25.845Z,6.20
2023-03-15T22:06:53.648Z,6.60
2023-03-15T22:09:23.215Z,7.17
2023-03-15T22:11:52.380Z,8.03
2023-03-15T22:14:21.722Z,6.40
2023-03-15T22:16:49.341Z,6.30
2023-03-15T22:19:17.519Z,8.00
2023-03-15T22:21:45.083Z,6.50
2023-03-15T22:24:12.831Z,7.73
2023-03-15T22:26:42.819Z,6.30
2023-03-15T22:29:11.940Z,6.23
2023-03-15T22:31:39.597Z,6.13
2023-03-15T22:34:07.253Z,7.00
2023-03-15T22:36:35.022Z,6.33
2023-03-15T22:39:03.512Z,6.87
2023-03-15T22:41:31.107Z,6.80
2023-03-15T22:43:58.709Z,7.03
2023-03-15T22:46:28.407Z,6.40
2023-03-15T22:48:56.165Z,6.70
2023-03-15T22:51:23.764Z,6.97
2023-03-15T22:53:51.827Z,7.03
2023-03-15T22:56:19.371Z,6.17
2023-03-15T22:58:47.220Z,6.60
2023-03-15T23:01:15.159Z,6.07
2023-03-15T23:03:44.256Z,6.50
2023-03-15T23:06:11.886Z,5.70
2023-03-15T23:08:39.547Z,6.30
2023-03-15T23:11:07.077Z,6.10
2023-03-15T23:13:34.638Z,6.60
2023-03-15T23:16:03.909Z,6.87
2023-03-15T23:18:34.134Z,6.67
2023-03-15T23:21:08.294Z,5.73
2023-03-15T23:23:36.216Z,5.97
2023-03-15T23:26:03.852Z,5.63
2023-03-15T23:28:32.561Z,5.40
2023-03-15T23:31:01.779Z,4.73
2023-03-15T23:33:30.084Z,5.60
2023-03-15T23:35:57.863Z,5.80
2023-03-15T23:38:29.508Z,6.57
2023-03-15T23:41:00.013Z,5.80
2023-03-15T23:43:28.401Z,5.47
2023-03-15T23:45:57.054Z,5.70
2023-03-15T23:48:25.355Z,5.10
2023-03-15T23:50:54.308Z,5.47
2023-03-15T23:53:22.005Z,5.30
2023-03-15T23:55:56.071Z,6.13
2023-03-15T23:58:25.669Z,5.33
